sensor_id;sensor_type;location;lat;lon;timestamp;P1;durP1;ratioP1;P2;durP2;ratioP2
39874;SDS011;25547;52.530;13.194;2022-10-16T05:28:04;1.20;;;0.20;;
39874;SDS011;25547;52.530;13.194;2022-10-16T05:30:30;2.47;;;0.10;;
39874;SDS011;25547;52.530;13.194;2022-10-16T05:32:55;3.15;;;0.20;;
39874;SDS011;25547;52.530;13.194;2022-10-16T05:35:21;0.73;;;0.10;;
39874;SDS011;25547;52.530;13.194;2022-10-16T05:37:47;1.85;;;0.20;;
39874;SDS011;25547;52.530;13.194;2022-10-16T05:40:14;1.50;;;0.20;;
39874;SDS011;25547;52.530;13.194;2022-10-16T05:42:42;6.18;;;0.10;;
39874;SDS011;25547;52.530;13.194;2022-10-16T05:45:09;1.17;;;0.10;;
39874;SDS011;25547;52.530;13.194;2022-10-16T05:47:36;0.75;;;0.10;;
39874;SDS011;25547;52.530;13.194;2022-10-16T05:50:02;2.35;;;0.20;;
39874;SDS011;25547;52.530;13.194;2022-10-16T05:52:30;2.60;;;0.17;;
39874;SDS011;25547;52.530;13.194;2022-10-16T05:54:58;1.55;;;0.17;;
39874;SDS011;25547;52.530;13.194;2022-10-16T05:57:24;3.53;;;0.10;;
39874;SDS011;25547;52.530;13.194;2022-10-16T05:59:49;1.80;;;0.10;;
39874;SDS011;25547;52.530;13.194;2022-10-16T06:02:15;0.70;;;0.10;;
39874;SDS011;25547;52.530;13.194;2022-10-16T06:04:41;1.17;;;0.10;;
39874;SDS011;25547;52.530;13.194;2022-10-16T06:07:07;0.80;;;0.10;;
39874;SDS011;25547;52.530;13.194;2022-10-16T06:09:32;1.10;;;0.10;;
39874;SDS011;25547;52.530;13.194;2022-10-16T06:12:02;1.08;;;0.20;;
39874;SDS011;25547;52.530;13.194;2022-10-16T06:14:32;2.00;;;0.30;;
39874;SDS011;25547;52.530;13.194;2022-10-16T06:16:57;6.78;;;3.63;;
39874;SDS011;25547;52.530;13.194;2022-10-16T06:19:23;9.57;;;4.38;;
39874;SDS011;25547;52.530;13.194;2022-10-16T06:21:51;1.45;;;0.30;;
39874;SDS011;25547;52.530;13.194;2022-10-16T06:24:17;3.60;;;0.60;;
39874;SDS011;25547;52.530;13.194;2022-10-16T06:26:42;5.57;;;0.10;;
39874;SDS011;25547;52.530;13.194;2022-10-16T06:29:08;3.25;;;0.20;;
39874;SDS011;25547;52.530;13.194;2022-10-16T06:31:33;1.27;;;0.45;;
39874;SDS011;25547;52.530;13.194;2022-10-16T06:33:59;2.28;;;0.17;;
39874;SDS011;25547;52.530;13.194;2022-10-16T06:36:29;2.55;;;0.10;;
39874;SDS011;25547;52.530;13.194;2022-10-16T06:38:57;3.33;;;0.10;;
39874;SDS011;25547;52.530;13.194;2022-10-16T06:41:23;1.73;;;0.22;;
39874;SDS011;25547;52.530;13.194;2022-10-16T06:43:48;12.73;;;6.68;;
39874;SDS011;25547;52.530;13.194;2022-10-16T06:46:16;1.85;;;0.40;;
39874;SDS011;25547;52.530;13.194;2022-10-16T06:48:43;3.47;;;0.10;;
39874;SDS011;25547;52.530;13.194;2022-10-16T06:51:12;1.20;;;0.10;;
39874;SDS011;25547;52.530;13.194;2022-10-16T06:53:42;2.13;;;0.20;;
39874;SDS011;25547;52.530;13.194;2022-10-16T06:56:11;2.22;;;0.20;;
39874;SDS011;25547;52.530;13.194;2022-10-16T06:58:38;3.17;;;0.20;;
39874;SDS011;25547;52.530;13.194;2022-10-16T07:01:05;1.20;;;0.17;;
39874;SDS011;25547;52.530;13.194;2022-10-16T07:03:30;1.75;;;0.20;;
39874;SDS011;25547;52.530;13.194;2022-10-16T07:05:56;6.88;;;0.10;;
39874;SDS011;25547;52.530;13.194;2022-10-16T07:08:26;2.22;;;0.45;;
39874;SDS011;25547;52.530;13.194;2022-10-16T07:10:57;2.20;;;0.30;;
39874;SDS011;25547;52.530;13.194;2022-10-16T07:13:26;0.82;;;0.20;;
39874;SDS011;25547;52.530;13.194;2022-10-16T07:15:52;0.82;;;0.10;;
39874;SDS011;25547;52.530;13.194;2022-10-16T07:18:20;0.88;;;0.20;;
39874;SDS011;25547;52.530;13.194;2022-10-16T07:20:46;1.35;;;0.17;;
39874;SDS011;25547;52.530;13.194;2022-10-16T07:23:12;1.20;;;0.10;;
39874;SDS011;25547;52.530;13.194;2022-10-16T07:25:37;1.33;;;0.10;;
39874;SDS011;25547;52.530;13.194;2022-10-16T07:28:03;0.93;;;0.10;;
39874;SDS011;25547;52.530;13.194;2022-10-16T07:30:29;3.92;;;0.20;;
39874;SDS011;25547;52.530;13.194;2022-10-16T07:32:57;1.35;;;0.20;;
39874;SDS011;25547;52.530;13.194;2022-10-16T07:35:25;1.88;;;0.10;;
39874;SDS011;25547;52.530;13.194;2022-10-16T07:37:50;1.08;;;0.40;;
39874;SDS011;25547;52.530;13.194;2022-10-16T07:40:18;1.50;;;0.10;;
39874;SDS011;25547;52.530;13.194;2022-10-16T07:42:46;2.47;;;0.10;;
39874;SDS011;25547;52.530;13.194;2022-10-16T07:45:14;1.52;;;0.20;;
39874;SDS011;25547;52.530;13.194;2022-10-16T07:47:39;6.07;;;0.40;;
39874;SDS011;25547;52.530;13.194;2022-10-16T07:50:05;1.17;;;0.20;;
39874;SDS011;25547;52.530;13.194;2022-10-16T07:52:31;0.98;;;0.20;;
39874;SDS011;25547;52.530;13.194;2022-10-16T07:54:56;1.25;;;0.20;;
39874;SDS011;25547;52.530;13.194;2022-10-16T07:57:22;9.15;;;1.10;;
39874;SDS011;25547;52.530;13.194;2022-10-16T07:59:50;0.65;;;0.10;;
39874;SDS011;25547;52.530;13.194;2022-10-16T08:02:18;0.82;;;0.10;;
39874;SDS011;25547;52.530;13.194;2022-10-16T08:04:46;4.15;;;0.35;;
39874;SDS011;25547;52.530;13.194;2022-10-16T08:07:11;2.33;;;0.30;;
39874;SDS011;25547;52.530;13.194;2022-10-16T08:09:37;1.73;;;0.35;;
39874;SDS011;25547;52.530;13.194;2022-10-16T08:12:05;2.65;;;0.50;;
39874;SDS011;25547;52.530;13.194;2022-10-16T08:14:31;2.05;;;0.10;;
39874;SDS011;25547;52.530;13.194;2022-10-16T08:16:58;3.05;;;0.20;;
39874;SDS011;25547;52.530;13.194;2022-10-16T08:19:26;1.70;;;0.10;;
39874;SDS011;25547;52.530;13.194;2022-10-16T08:21:51;1.88;;;0.20;;
39874;SDS011;25547;52.530;13.194;2022-10-16T08:24:17;1.23;;;0.25;;
39874;SDS011;25547;52.530;13.194;2022-10-16T08:26:42;2.60;;;0.40;;
39874;SDS011;25547;52.530;13.194;2022-10-16T08:29:12;1.05;;;0.10;;
39874;SDS011;25547;52.530;13.194;2022-10-16T08:31:41;2.85;;;0.70;;
39874;SDS011;25547;52.530;13.194;2022-10-16T08:34:08;3.42;;;0.30;;
39874;SDS011;25547;52.530;13.194;2022-10-16T08:36:34;2.38;;;0.20;;
39874;SDS011;25547;52.530;13.194;2022-10-16T08:39:03;2.17;;;0.20;;
39874;SDS011;25547;52.530;13.194;2022-10-16T08:44:54;0.65;;;0.10;;
39874;SDS011;25547;52.530;13.194;2022-10-16T08:47:20;2.97;;;0.55;;
39874;SDS011;25547;52.530;13.194;2022-10-16T08:49:57;0.70;;;0.10;;
39874;SDS011;25547;52.530;13.194;2022-10-16T08:54:57;1.05;;;0.00;;
39874;SDS011;25547;52.530;13.194;2022-10-16T08:57:24;0.80;;;0.10;;
39874;SDS011;25547;52.530;13.194;2022-10-16T08:59:52;0.60;;;0.10;;
39874;SDS011;25547;52.530;13.194;2022-10-16T09:02:34;4.13;;;0.10;;
39874;SDS011;25547;52.530;13.194;2022-10-16T09:10:58;1.83;;;0.05;;
39874;SDS011;25547;52.530;13.194;2022-10-16T09:13:31;2.63;;;0.00;;
39874;SDS011;25547;52.530;13.194;2022-10-16T09:21:19;0.90;;;0.00;;
39874;SDS011;25547;52.530;13.194;2022-10-16T09:23:49;1.67;;;0.10;;
39874;SDS011;25547;52.530;13.194;2022-10-16T09:26:16;0.60;;;0.10;;
39874;SDS011;25547;52.530;13.194;2022-10-16T09:28:46;0.20;;;0.00;;
39874;SDS011;25547;52.530;13.194;2022-10-16T09:31:18;1.75;;;0.05;;
39874;SDS011;25547;52.530;13.194;2022-10-16T09:33:49;1.52;;;0.00;;
39874;SDS011;25547;52.530;13.194;2022-10-16T09:36:20;0.40;;;0.00;;
39874;SDS011;25547;52.530;13.194;2022-10-16T09:38:48;1.55;;;0.00;;
39874;SDS011;25547;52.530;13.194;2022-10-16T09:41:19;0.57;;;0.20;;
39874;SDS011;25547;52.530;13.194;2022-10-16T09:43:47;0.45;;;0.00;;
39874;SDS011;25547;52.530;13.194;2022-10-16T09:48:48;0.35;;;0.00;;
39874;SDS011;25547;52.530;13.194;2022-10-16T09:56:38;0.40;;;0.00;;
39874;SDS011;25547;52.530;13.194;2022-10-16T09:59:14;0.32;;;0.00;;
39874;SDS011;25547;52.530;13.194;2022-10-16T10:01:48;0.40;;;0.00;;
39874;SDS011;25547;52.530;13.194;2022-10-16T10:04:14;2.15;;;0.10;;
39874;SDS011;25547;52.530;13.194;2022-10-16T10:06:43;1.58;;;0.00;;
39874;SDS011;25547;52.530;13.194;2022-10-16T10:14:28;1.95;;;0.00;;
39874;SDS011;25547;52.530;13.194;2022-10-16T10:19:37;2.83;;;0.10;;
39874;SDS011;25547;52.530;13.194;2022-10-16T10:22:39;1.30;;;0.10;;
39874;SDS011;25547;52.530;13.194;2022-10-16T10:31:10;0.30;;;0.00;;
39874;SDS011;25547;52.530;13.194;2022-10-16T10:36:32;0.77;;;0.35;;
39874;SDS011;25547;52.530;13.194;2022-10-16T10:39:08;2.08;;;0.00;;
39874;SDS011;25547;52.530;13.194;2022-10-16T10:41:57;0.40;;;0.00;;
39874;SDS011;25547;52.530;13.194;2022-10-16T10:55:38;0.13;;;0.00;;
39874;SDS011;25547;52.530;13.194;2022-10-16T11:01:13;0.50;;;0.00;;
39874;SDS011;25547;52.530;13.194;2022-10-16T11:14:40;0.60;;;0.00;;
39874;SDS011;25547;52.530;13.194;2022-10-16T11:22:39;0.38;;;0.00;;
39874;SDS011;25547;52.530;13.194;2022-10-16T11:30:34;6.13;;;0.95;;
39874;SDS011;25547;52.530;13.194;2022-10-16T11:35:53;0.60;;;0.00;;
39874;SDS011;25547;52.530;13.194;2022-10-16T11:38:30;0.25;;;0.00;;
39874;SDS011;25547;52.530;13.194;2022-10-16T11:43:39;0.47;;;0.00;;
39874;SDS011;25547;52.530;13.194;2022-10-16T11:46:10;1.65;;;0.00;;
39874;SDS011;25547;52.530;13.194;2022-10-16T11:48:48;0.17;;;0.00;;
39874;SDS011;25547;52.530;13.194;2022-10-16T11:56:29;0.40;;;0.00;;
39874;SDS011;25547;52.530;13.194;2022-10-16T11:59:22;0.30;;;0.00;;
39874;SDS011;25547;52.530;13.194;2022-10-16T12:04:43;0.50;;;0.00;;
39874;SDS011;25547;52.530;13.194;2022-10-16T12:07:23;0.30;;;0.00;;
39874;SDS011;25547;52.530;13.194;2022-10-16T12:09:56;1.98;;;0.00;;
39874;SDS011;25547;52.530;13.194;2022-10-16T12:15:18;1.50;;;0.00;;
39874;SDS011;25547;52.530;13.194;2022-10-16T12:17:46;1.55;;;0.00;;
39874;SDS011;25547;52.530;13.194;2022-10-16T12:22:54;0.95;;;0.00;;
39874;SDS011;25547;52.530;13.194;2022-10-16T12:25:22;2.40;;;0.00;;
39874;SDS011;25547;52.530;13.194;2022-10-16T12:27:54;0.32;;;0.00;;
39874;SDS011;25547;52.530;13.194;2022-10-16T12:30:28;0.32;;;0.00;;
39874;SDS011;25547;52.530;13.194;2022-10-16T12:32:59;0.57;;;0.00;;
39874;SDS011;25547;52.530;13.194;2022-10-16T12:35:30;0.17;;;0.00;;
39874;SDS011;25547;52.530;13.194;2022-10-16T12:41:06;2.08;;;0.00;;
39874;SDS011;25547;52.530;13.194;2022-10-16T12:48:40;0.20;;;0.00;;
39874;SDS011;25547;52.530;13.194;2022-10-16T12:53:37;0.93;;;0.00;;
39874;SDS011;25547;52.530;13.194;2022-10-16T13:18:22;0.40;;;0.00;;
39874;SDS011;25547;52.530;13.194;2022-10-16T13:26:21;0.40;;;0.00;;
39874;SDS011;25547;52.530;13.194;2022-10-16T13:28:56;0.10;;;0.00;;
39874;SDS011;25547;52.530;13.194;2022-10-16T13:31:27;2.70;;;0.00;;
39874;SDS011;25547;52.530;13.194;2022-10-16T13:33:57;1.65;;;0.00;;
39874;SDS011;25547;52.530;13.194;2022-10-16T13:39:12;0.20;;;0.00;;
39874;SDS011;25547;52.530;13.194;2022-10-16T13:41:40;0.45;;;0.00;;
39874;SDS011;25547;52.530;13.194;2022-10-16T13:44:11;0.20;;;0.00;;
39874;SDS011;25547;52.530;13.194;2022-10-16T13:46:40;0.17;;;0.00;;
39874;SDS011;25547;52.530;13.194;2022-10-16T13:49:13;0.20;;;0.00;;
39874;SDS011;25547;52.530;13.194;2022-10-16T13:51:41;0.10;;;0.00;;
39874;SDS011;25547;52.530;13.194;2022-10-16T13:54:18;0.22;;;0.00;;
39874;SDS011;25547;52.530;13.194;2022-10-16T13:56:43;0.22;;;0.00;;
39874;SDS011;25547;52.530;13.194;2022-10-16T13:59:25;0.20;;;0.00;;
39874;SDS011;25547;52.530;13.194;2022-10-16T14:01:57;0.10;;;0.00;;
39874;SDS011;25547;52.530;13.194;2022-10-16T14:04:25;0.80;;;0.30;;
39874;SDS011;25547;52.530;13.194;2022-10-16T14:06:55;0.73;;;0.00;;
39874;SDS011;25547;52.530;13.194;2022-10-16T14:09:23;0.20;;;0.00;;
39874;SDS011;25547;52.530;13.194;2022-10-16T14:11:50;0.30;;;0.00;;
39874;SDS011;25547;52.530;13.194;2022-10-16T14:14:20;2.60;;;0.00;;
39874;SDS011;25547;52.530;13.194;2022-10-16T14:16:46;2.08;;;0.00;;
39874;SDS011;25547;52.530;13.194;2022-10-16T14:19:24;1.10;;;0.22;;
39874;SDS011;25547;52.530;13.194;2022-10-16T14:21:51;0.38;;;0.00;;
39874;SDS011;25547;52.530;13.194;2022-10-16T14:26:55;0.30;;;0.00;;
39874;SDS011;25547;52.530;13.194;2022-10-16T14:29:21;0.28;;;0.00;;
39874;SDS011;25547;52.530;13.194;2022-10-16T14:31:59;1.40;;;0.00;;
39874;SDS011;25547;52.530;13.194;2022-10-16T14:34:32;0.57;;;0.00;;
39874;SDS011;25547;52.530;13.194;2022-10-16T14:37:13;0.35;;;0.00;;
39874;SDS011;25547;52.530;13.194;2022-10-16T14:39:51;0.63;;;0.00;;
39874;SDS011;25547;52.530;13.194;2022-10-16T14:42:18;0.20;;;0.00;;
39874;SDS011;25547;52.530;13.194;2022-10-16T14:44:45;0.80;;;0.00;;
39874;SDS011;25547;52.530;13.194;2022-10-16T14:47:16;2.42;;;0.00;;
39874;SDS011;25547;52.530;13.194;2022-10-16T14:49:49;0.10;;;0.00;;
39874;SDS011;25547;52.530;13.194;2022-10-16T14:52:15;0.15;;;0.00;;
39874;SDS011;25547;52.530;13.194;2022-10-16T14:54:43;1.77;;;0.00;;
39874;SDS011;25547;52.530;13.194;2022-10-16T14:57:16;0.47;;;0.00;;
39874;SDS011;25547;52.530;13.194;2022-10-16T14:59:47;0.70;;;0.20;;
39874;SDS011;25547;52.530;13.194;2022-10-16T15:04:45;1.75;;;0.00;;
39874;SDS011;25547;52.530;13.194;2022-10-16T15:07:10;2.85;;;0.00;;
39874;SDS011;25547;52.530;13.194;2022-10-16T15:09:36;1.38;;;0.00;;
39874;SDS011;25547;52.530;13.194;2022-10-16T15:12:02;1.50;;;0.00;;
39874;SDS011;25547;52.530;13.194;2022-10-16T15:14:27;0.65;;;0.00;;
39874;SDS011;25547;52.530;13.194;2022-10-16T15:16:53;1.58;;;0.00;;
39874;SDS011;25547;52.530;13.194;2022-10-16T15:19:20;0.50;;;0.00;;
39874;SDS011;25547;52.530;13.194;2022-10-16T15:21:46;0.90;;;0.03;;
39874;SDS011;25547;52.530;13.194;2022-10-16T15:24:13;1.67;;;0.10;;
39874;SDS011;25547;52.530;13.194;2022-10-16T15:26:39;1.75;;;0.13;;
39874;SDS011;25547;52.530;13.194;2022-10-16T15:29:04;0.95;;;0.20;;
39874;SDS011;25547;52.530;13.194;2022-10-16T15:31:33;1.13;;;0.10;;
39874;SDS011;25547;52.530;13.194;2022-10-16T15:33:59;2.35;;;0.13;;
39874;SDS011;25547;52.530;13.194;2022-10-16T15:36:29;2.78;;;0.00;;
39874;SDS011;25547;52.530;13.194;2022-10-16T15:38:59;2.45;;;0.00;;
39874;SDS011;25547;52.530;13.194;2022-10-16T15:41:27;0.85;;;0.00;;
39874;SDS011;25547;52.530;13.194;2022-10-16T15:43:52;1.02;;;0.00;;
39874;SDS011;25547;52.530;13.194;2022-10-16T15:46:19;3.28;;;0.10;;
39874;SDS011;25547;52.530;13.194;2022-10-16T15:48:47;0.88;;;0.00;;
39874;SDS011;25547;52.530;13.194;2022-10-16T15:51:14;0.70;;;0.00;;
39874;SDS011;25547;52.530;13.194;2022-10-16T15:53:40;0.50;;;0.00;;
39874;SDS011;25547;52.530;13.194;2022-10-16T15:56:06;0.73;;;0.00;;
39874;SDS011;25547;52.530;13.194;2022-10-16T15:58:35;0.73;;;0.10;;
39874;SDS011;25547;52.530;13.194;2022-10-16T16:01:04;0.43;;;0.00;;
39874;SDS011;25547;52.530;13.194;2022-10-16T16:03:32;3.83;;;0.10;;
39874;SDS011;25547;52.530;13.194;2022-10-16T16:06:03;0.40;;;0.00;;
39874;SDS011;25547;52.530;13.194;2022-10-16T16:08:32;1.00;;;0.10;;
39874;SDS011;25547;52.530;13.194;2022-10-16T16:10:59;0.47;;;0.00;;
39874;SDS011;25547;52.530;13.194;2022-10-16T16:13:26;0.70;;;0.00;;
39874;SDS011;25547;52.530;13.194;2022-10-16T16:15:55;0.57;;;0.00;;
39874;SDS011;25547;52.530;13.194;2022-10-16T16:18:21;1.13;;;0.10;;
39874;SDS011;25547;52.530;13.194;2022-10-16T16:20:50;0.73;;;0.00;;
39874;SDS011;25547;52.530;13.194;2022-10-16T16:23:18;1.58;;;0.00;;
39874;SDS011;25547;52.530;13.194;2022-10-16T16:26:02;1.23;;;0.10;;
39874;SDS011;25547;52.530;13.194;2022-10-16T16:28:38;2.38;;;0.03;;
39874;SDS011;25547;52.530;13.194;2022-10-16T16:31:04;1.10;;;0.10;;
39874;SDS011;25547;52.530;13.194;2022-10-16T16:33:30;1.13;;;0.10;;
39874;SDS011;25547;52.530;13.194;2022-10-16T16:36:00;1.73;;;0.10;;
39874;SDS011;25547;52.530;13.194;2022-10-16T16:38:31;1.40;;;0.10;;
39874;SDS011;25547;52.530;13.194;2022-10-16T16:40:58;0.90;;;0.10;;
39874;SDS011;25547;52.530;13.194;2022-10-16T16:43:24;3.17;;;0.20;;
39874;SDS011;25547;52.530;13.194;2022-10-16T16:45:50;1.88;;;0.10;;
39874;SDS011;25547;52.530;13.194;2022-10-16T16:48:16;1.08;;;0.20;;
39874;SDS011;25547;52.530;13.194;2022-10-16T16:50:44;3.28;;;0.20;;
39874;SDS011;25547;52.530;13.194;2022-10-16T16:53:10;0.88;;;0.10;;
39874;SDS011;25547;52.530;13.194;2022-10-16T16:55:35;1.58;;;0.43;;
39874;SDS011;25547;52.530;13.194;2022-10-16T16:58:04;0.95;;;0.10;;
39874;SDS011;25547;52.530;13.194;2022-10-16T17:00:32;5.05;;;0.10;;
39874;SDS011;25547;52.530;13.194;2022-10-16T17:02:57;3.42;;;0.00;;
39874;SDS011;25547;52.530;13.194;2022-10-16T17:05:23;3.83;;;0.10;;
39874;SDS011;25547;52.530;13.194;2022-10-16T17:07:48;1.50;;;0.00;;
39874;SDS011;25547;52.530;13.194;2022-10-16T17:10:14;0.65;;;0.10;;
39874;SDS011;25547;52.530;13.194;2022-10-16T17:12:39;1.00;;;0.10;;
39874;SDS011;25547;52.530;13.194;2022-10-16T17:15:07;2.67;;;0.10;;
39874;SDS011;25547;52.530;13.194;2022-10-16T17:17:35;7.05;;;2.25;;
39874;SDS011;25547;52.530;13.194;2022-10-16T17:20:05;1.80;;;0.32;;
39874;SDS011;25547;52.530;13.194;2022-10-16T17:22:31;1.15;;;0.15;;
39874;SDS011;25547;52.530;13.194;2022-10-16T17:24:56;2.13;;;0.40;;
39874;SDS011;25547;52.530;13.194;2022-10-16T17:27:22;1.88;;;0.25;;
39874;SDS011;25547;52.530;13.194;2022-10-16T17:29:50;7.10;;;1.10;;
39874;SDS011;25547;52.530;13.194;2022-10-16T17:32:18;2.08;;;0.17;;
39874;SDS011;25547;52.530;13.194;2022-10-16T17:34:47;2.42;;;0.10;;
39874;SDS011;25547;52.530;13.194;2022-10-16T17:37:15;2.67;;;0.10;;
39874;SDS011;25547;52.530;13.194;2022-10-16T17:39:41;2.13;;;0.10;;
39874;SDS011;25547;52.530;13.194;2022-10-16T17:42:06;1.70;;;0.20;;
39874;SDS011;25547;52.530;13.194;2022-10-16T17:44:32;1.75;;;0.20;;
39874;SDS011;25547;52.530;13.194;2022-10-16T17:46:58;4.40;;;0.82;;
39874;SDS011;25547;52.530;13.194;2022-10-16T17:49:25;9.20;;;1.15;;
39874;SDS011;25547;52.530;13.194;2022-10-16T17:51:53;5.25;;;2.22;;
39874;SDS011;25547;52.530;13.194;2022-10-16T17:54:19;5.30;;;2.72;;
39874;SDS011;25547;52.530;13.194;2022-10-16T17:56:45;6.47;;;2.95;;
39874;SDS011;25547;52.530;13.194;2022-10-16T17:59:12;11.23;;;2.83;;
39874;SDS011;25547;52.530;13.194;2022-10-16T18:01:38;7.85;;;2.65;;
39874;SDS011;25547;52.530;13.194;2022-10-16T18:04:09;11.05;;;3.40;;
39874;SDS011;25547;52.530;13.194;2022-10-16T18:06:37;6.75;;;2.50;;
39874;SDS011;25547;52.530;13.194;2022-10-16T18:09:04;7.55;;;2.65;;
39874;SDS011;25547;52.530;13.194;2022-10-16T18:11:34;6.65;;;1.80;;
39874;SDS011;25547;52.530;13.194;2022-10-16T18:14:00;7.57;;;2.25;;
39874;SDS011;25547;52.530;13.194;2022-10-16T18:16:28;6.60;;;2.75;;
39874;SDS011;25547;52.530;13.194;2022-10-16T18:18:55;11.02;;;2.53;;
39874;SDS011;25547;52.530;13.194;2022-10-16T18:21:24;6.55;;;3.22;;
39874;SDS011;25547;52.530;13.194;2022-10-16T18:23:56;3.95;;;2.17;;
39874;SDS011;25547;52.530;13.194;2022-10-16T18:26:26;7.63;;;2.47;;
39874;SDS011;25547;52.530;13.194;2022-10-16T18:28:55;6.68;;;2.80;;
39874;SDS011;25547;52.530;13.194;2022-10-16T18:31:27;4.68;;;1.92;;
39874;SDS011;25547;52.530;13.194;2022-10-16T18:33:55;11.60;;;3.28;;
39874;SDS011;25547;52.530;13.194;2022-10-16T18:36:25;8.95;;;2.47;;
39874;SDS011;25547;52.530;13.194;2022-10-16T18:38:55;9.38;;;2.35;;
39874;SDS011;25547;52.530;13.194;2022-10-16T18:41:24;6.57;;;2.50;;
39874;SDS011;25547;52.530;13.194;2022-10-16T18:43:51;5.25;;;1.92;;
39874;SDS011;25547;52.530;13.194;2022-10-16T18:46:17;5.53;;;2.08;;
39874;SDS011;25547;52.530;13.194;2022-10-16T18:48:44;8.50;;;3.17;;
39874;SDS011;25547;52.530;13.194;2022-10-16T18:51:14;4.78;;;2.30;;
39874;SDS011;25547;52.530;13.194;2022-10-16T18:53:47;9.35;;;2.47;;
39874;SDS011;25547;52.530;13.194;2022-10-16T18:56:15;10.07;;;2.05;;
39874;SDS011;25547;52.530;13.194;2022-10-16T19:01:18;20.13;;;9.52;;
39874;SDS011;25547;52.530;13.194;2022-10-16T19:03:46;19.60;;;8.95;;
39874;SDS011;25547;52.530;13.194;2022-10-16T19:06:16;18.40;;;9.63;;
39874;SDS011;25547;52.530;13.194;2022-10-16T19:08:41;5.35;;;2.55;;
39874;SDS011;25547;52.530;13.194;2022-10-16T19:11:08;5.05;;;2.50;;
39874;SDS011;25547;52.530;13.194;2022-10-16T19:13:36;10.60;;;2.55;;
39874;SDS011;25547;52.530;13.194;2022-10-16T19:16:08;7.47;;;2.47;;
39874;SDS011;25547;52.530;13.194;2022-10-16T19:18:38;7.20;;;2.45;;
39874;SDS011;25547;52.530;13.194;2022-10-16T19:21:07;6.40;;;2.47;;
39874;SDS011;25547;52.530;13.194;2022-10-16T19:23:35;5.43;;;2.05;;
39874;SDS011;25547;52.530;13.194;2022-10-16T19:26:07;2.80;;;1.02;;
39874;SDS011;25547;52.530;13.194;2022-10-16T19:28:34;5.70;;;1.15;;
39874;SDS011;25547;52.530;13.194;2022-10-16T19:31:04;5.95;;;1.20;;
39874;SDS011;25547;52.530;13.194;2022-10-16T19:33:34;4.80;;;1.30;;
39874;SDS011;25547;52.530;13.194;2022-10-16T19:36:10;4.78;;;0.93;;
39874;SDS011;25547;52.530;13.194;2022-10-16T19:38:35;3.72;;;0.93;;
39874;SDS011;25547;52.530;13.194;2022-10-16T19:41:09;6.60;;;0.88;;
39874;SDS011;25547;52.530;13.194;2022-10-16T19:43:36;2.95;;;0.73;;
39874;SDS011;25547;52.530;13.194;2022-10-16T19:46:09;6.57;;;1.05;;
39874;SDS011;25547;52.530;13.194;2022-10-16T19:48:41;4.15;;;1.20;;
39874;SDS011;25547;52.530;13.194;2022-10-16T19:51:11;15.10;;;2.58;;
39874;SDS011;25547;52.530;13.194;2022-10-16T19:53:39;7.53;;;1.92;;
39874;SDS011;25547;52.530;13.194;2022-10-16T19:56:18;3.35;;;0.93;;
39874;SDS011;25547;52.530;13.194;2022-10-16T19:58:47;5.25;;;1.02;;
39874;SDS011;25547;52.530;13.194;2022-10-16T20:01:15;3.45;;;0.88;;
39874;SDS011;25547;52.530;13.194;2022-10-16T20:03:44;5.88;;;1.15;;
39874;SDS011;25547;52.530;13.194;2022-10-16T20:06:12;2.80;;;1.13;;
39874;SDS011;25547;52.530;13.194;2022-10-16T20:08:39;3.80;;;0.70;;
39874;SDS011;25547;52.530;13.194;2022-10-16T20:11:12;4.35;;;0.77;;
39874;SDS011;25547;52.530;13.194;2022-10-16T20:13:45;5.75;;;0.77;;
39874;SDS011;25547;52.530;13.194;2022-10-16T20:16:13;2.50;;;0.32;;
39874;SDS011;25547;52.530;13.194;2022-10-16T20:18:41;3.45;;;0.73;;
39874;SDS011;25547;52.530;13.194;2022-10-16T20:21:11;5.65;;;0.30;;
39874;SDS011;25547;52.530;13.194;2022-10-16T20:23:40;1.95;;;0.30;;
39874;SDS011;25547;52.530;13.194;2022-10-16T20:26:06;1.27;;;0.30;;
39874;SDS011;25547;52.530;13.194;2022-10-16T20:28:32;2.80;;;0.70;;
39874;SDS011;25547;52.530;13.194;2022-10-16T20:30:57;5.07;;;0.98;;
39874;SDS011;25547;52.530;13.194;2022-10-16T20:33:32;4.65;;;1.02;;
39874;SDS011;25547;52.530;13.194;2022-10-16T20:36:00;4.20;;;1.10;;
39874;SDS011;25547;52.530;13.194;2022-10-16T20:38:25;3.15;;;0.60;;
39874;SDS011;25547;52.530;13.194;2022-10-16T20:40:51;4.80;;;1.00;;
39874;SDS011;25547;52.530;13.194;2022-10-16T20:43:17;4.10;;;0.90;;
39874;SDS011;25547;52.530;13.194;2022-10-16T20:45:43;2.92;;;0.73;;
39874;SDS011;25547;52.530;13.194;2022-10-16T20:48:10;6.63;;;1.42;;
39874;SDS011;25547;52.530;13.194;2022-10-16T20:50:37;5.70;;;2.20;;
39874;SDS011;25547;52.530;13.194;2022-10-16T20:53:03;7.07;;;2.35;;
39874;SDS011;25547;52.530;13.194;2022-10-16T20:55:33;6.75;;;2.00;;
39874;SDS011;25547;52.530;13.194;2022-10-16T20:57:59;7.10;;;1.98;;
39874;SDS011;25547;52.530;13.194;2022-10-16T21:00:25;12.75;;;2.67;;
39874;SDS011;25547;52.530;13.194;2022-10-16T21:02:51;6.15;;;0.85;;
39874;SDS011;25547;52.530;13.194;2022-10-16T21:05:17;2.35;;;0.70;;
39874;SDS011;25547;52.530;13.194;2022-10-16T21:07:43;5.78;;;1.77;;
39874;SDS011;25547;52.530;13.194;2022-10-16T21:10:09;4.70;;;1.20;;
39874;SDS011;25547;52.530;13.194;2022-10-16T21:12:35;3.28;;;0.73;;
39874;SDS011;25547;52.530;13.194;2022-10-16T21:15:03;3.20;;;1.10;;
39874;SDS011;25547;52.530;13.194;2022-10-16T21:17:32;5.95;;;1.63;;
39874;SDS011;25547;52.530;13.194;2022-10-16T21:20:00;3.95;;;0.70;;
39874;SDS011;25547;52.530;13.194;2022-10-16T21:22:29;4.30;;;0.77;;
39874;SDS011;25547;52.530;13.194;2022-10-16T21:24:55;2.50;;;0.68;;
39874;SDS011;25547;52.530;13.194;2022-10-16T21:27:21;6.53;;;0.90;;
39874;SDS011;25547;52.530;13.194;2022-10-16T21:29:46;1.45;;;0.40;;
39874;SDS011;25547;52.530;13.194;2022-10-16T21:32:12;3.22;;;1.38;;
39874;SDS011;25547;52.530;13.194;2022-10-16T21:34:37;7.50;;;1.63;;
39874;SDS011;25547;52.530;13.194;2022-10-16T21:37:05;4.05;;;0.80;;
39874;SDS011;25547;52.530;13.194;2022-10-16T21:39:31;6.85;;;0.47;;
39874;SDS011;25547;52.530;13.194;2022-10-16T21:42:01;2.75;;;1.20;;
39874;SDS011;25547;52.530;13.194;2022-10-16T21:44:27;3.45;;;0.40;;
39874;SDS011;25547;52.530;13.194;2022-10-16T21:46:55;3.25;;;0.65;;
39874;SDS011;25547;52.530;13.194;2022-10-16T21:49:21;3.67;;;0.90;;
39874;SDS011;25547;52.530;13.194;2022-10-16T21:51:49;5.88;;;1.05;;
39874;SDS011;25547;52.530;13.194;2022-10-16T21:54:16;2.00;;;0.60;;
39874;SDS011;25547;52.530;13.194;2022-10-16T21:56:43;4.93;;;0.88;;
39874;SDS011;25547;52.530;13.194;2022-10-16T21:59:11;6.10;;;0.95;;
39874;SDS011;25547;52.530;13.194;2022-10-16T22:01:43;4.43;;;0.63;;
39874;SDS011;25547;52.530;13.194;2022-10-16T22:04:11;2.45;;;0.73;;
39874;SDS011;25547;52.530;13.194;2022-10-16T22:06:41;2.42;;;0.68;;
39874;SDS011;25547;52.530;13.194;2022-10-16T22:09:09;3.03;;;0.68;;
39874;SDS011;25547;52.530;13.194;2022-10-16T22:11:39;3.35;;;0.45;;
39874;SDS011;25547;52.530;13.194;2022-10-16T22:14:07;2.20;;;0.47;;
39874;SDS011;25547;52.530;13.194;2022-10-16T22:16:35;6.13;;;0.82;;
39874;SDS011;25547;52.530;13.194;2022-10-16T22:19:02;3.30;;;0.98;;
39874;SDS011;25547;52.530;13.194;2022-10-16T22:21:31;6.90;;;0.90;;
39874;SDS011;25547;52.530;13.194;2022-10-16T22:23:58;2.88;;;0.88;;
39874;SDS011;25547;52.530;13.194;2022-10-16T22:26:24;3.83;;;0.65;;
39874;SDS011;25547;52.530;13.194;2022-10-16T22:28:53;2.50;;;0.40;;
39874;SDS011;25547;52.530;13.194;2022-10-16T22:31:19;3.22;;;0.35;;
39874;SDS011;25547;52.530;13.194;2022-10-16T22:33:59;5.40;;;0.93;;